Grinnell, IA (50112)

5:31 AM CDT on May 05, 2015 (GMT -0500)
Grinnell Weather.com | | Change Station
CLOSE
Current Station
Personal Weather Station
Location: Grinnell, IA
Elevation: 1014 ft
Nearby Weather Stations

Elev 1014 ft 41.75 °N, 92.70 °W | Updated 3 seconds ago

Overcast
Overcast
58.7 °F
Feels Like 58.7 °F
N
1.1
Wind Variable Wind from South
Gusts 2.3 mph

Today
High -- | Low -- °F
--% Chance of Precip.
Yesterday
High -- | Low -- °F
Precip. -- in
6:02 AM 8:13 PM
Full, 98% visible
Pressure 30.10 in
Visibility 10.0 miles
Clouds Scattered Clouds 6000 ft
Overcast 8000 ft
Dew Point 58 °F
Humidity 98%
Rainfall 0.02 in
Snow Depth Not available.
UV 0.0 out of 12
Pollen 2.20 out of 12
Air Quality Not available.
Flu Activity Local Activity
METAR KGGI 050955Z AUTO 18003KT 10SM SCT060 OVC080 15/14 A3010 RMK AO2 T01500140

More Conditions Fewer Conditions

Pressure 30.10 in
Visibility 10.0 miles
Clouds Scattered Clouds 6000 ft
Overcast 8000 ft
Dew Point 58 °F
Humidity 98%
Rainfall 0.02 in
Snow Depth Not available.
UV 0.0 out of 12
Pollen 2.20 out of 12
Air Quality Not available.
Flu Activity Local Activity
METAR KGGI 050955Z AUTO 18003KT 10SM SCT060 OVC080 15/14 A3010 RMK AO2 T01500140

More Conditions Fewer Conditions

Nepal has a long way to go to dig out and rebuild from a devastating earthquake. We have teamed up with several charities and organizations to make contributing to the relief effort as easy as possible.
How you can help: Portlight Strategies | Red Cross

10-Day Weather Forecast

Almanac

Astronomy

May. 05, 2015 Rise Set
Actual Time
Civil Twilight
Nautical Twilight
Astronomical Twilight
Moon
Length of Visible Light
Length of Day
Tomorrow will be .
, % of the Moon is Illuminated

Today's Extremes

State Highs State Lows

Community

WunderPhotos

Upload Photos

1,818,828 photos uploaded!

WunderBlogs® & News

Nearby

Air Quality

  Air Quality AQ Index Pollutant
Not available.

Snow Depth

Station Depth Elevation

Earthquake Activity

City Distance Mag. Time & Date
Minimum magnitude displayed is 2.5.

Coastal Water Temperatures

Place Temperature

Stations

Nearby Weather Stations

Station Location Temp. Windchill Dew Point Humidity Wind Precip. Elev Updated Type